Hollywood, Florida
Current Conditions -  °F | °C
As of 4:53 AM on Sunday 23 Nov 2014 (Local Time) from KFLL Reporting Station
Scattered Clouds Scattered Clouds  
Wind Chill: 78°   Ceiling: Unl
Heat Index: 80°   Visibility: 10mi
Dew Point: 70°   Wind: 20mph
Humidity: 76%   Direction: 120°ESE
Pressure: 30.01"   Gusts: NA
Location:  26.01°N, 80.16°W
Report Text: KFLL 230953Z 12017KT 10SM FEW020 SCT039 26/21 A3001 RMK AO2 SLP160 T02560211
Loading
Personal Weather Stations






























Interactive Weather Map New forecast layout! Learn more

10-Day Weather Forecast

Advertisements
Track Severe Weather on mobile